Overview Statistics Trail Chart Weather Telemetry Raw packets
 

This is the latest recevied weather packets stored in our database for station/object SP9WJ-3. If no packets are shown the sender has not sent any weather packets the latest 10 day(s).

<< 5 6 7 8 9 >>
Time Temp. Humidity Pressure Rain* Wind** Luminosity Snow
1788016869 34.44° C 19% 981.4 hPa - - - -
1788015947 31.67° C 27% 981.4 hPa - - - -
1788015024 33.33° C 22% 981.4 hPa - - - -
1788013178 33.33° C 21% 981.5 hPa - - - -
1788012255 30° C 30% 981.5 hPa - - - -
1788010413 25.56° C 44% 981.7 hPa - - - -
1788008572 25° C 45% 981.8 hPa - - - -
1788006791 26.11° C 41% 981.6 hPa - - - -
1788006731 26.11° C 41% 981.6 hPa - - - -
1788005810 26.11° C 41% 981.7 hPa - - - -
1788004889 25.56° C 42% 981.6 hPa - - - -
1788003968 25° C 45% 981.7 hPa - - - -
1788003048 24.44° C 47% 981.7 hPa - - - -
1788001207 23.89° C 48% 981.8 hPa - - - -
1787999367 23.33° C 50% 982.1 hPa - - - -
1787999128 23.89° C 51% 982.1 hPa - - - -
1787998447 23.33° C 51% 982 hPa - - - -
1787997527 23.89° C 51% 982.1 hPa - - - -
1787996607 23.33° C 53% 982 hPa - - - -
1787995748 22.78° C 55% 982 hPa - - - -
1787995687 22.78° C 55% 982 hPa - - - -
1787992927 23.33° C 53% 981.8 hPa - - - -
1787991087 23.89° C 51% 981.5 hPa - - - -
1787989246 23.33° C 53% 981.5 hPa - - - -
1787982912 22.78° C 54% 979.9 hPa - - - -

* Rain since midnight (hover to see other rain measurements)
** Current wind speed in m/s (hover to see current wind gust speed)